Maple Lake, Minnesota
Current Conditions -  °F | °C
As of 3:14 AM on Wednesday 22 Oct 2014 (Local Time) from KMGG Reporting Station
Clear Clear  
Wind Chill: 41°   Ceiling: Unl
Heat Index: 46°   Visibility: 10mi
Dew Point: 40°   Wind: 9mph
Humidity: 80%   Direction: 140°SE
Pressure: 30.16"   Gusts: NA
Location:  45.23°N, 94°W
Report Text: KMGG 220814Z AUTO 14008KT 10SM CLR 08/04 A3016 RMK AO2 T00760043
Loading
Personal Weather Stations






























Interactive Weather Map New forecast layout! Learn more

10-Day Weather Forecast

Advertisements
Track Severe Weather on mobile